Pagrindinis puslapis
METAR-TAF:

METAR-TAF

Oro uostai :

Batervortas, Malaizija

platuma: 05-27-58N, ilguma: 100-23-28E, Aukštis: 2 m

Dabartinis oras

Ataskaita buvo paskelbta 21 minutes, ne 01:00 UTC
Vėjas 4 kt iš Rytų/Šiaurės Rytų, svyruoja nuo Šiaurės Rytų ir Rytų
Temperatūra 26°C
Drėgmė 84%
Slėgis 1012 hPa
Matomumas: 8000 m
Mažai debesys ne aukštis 1700 ft, Liūtiniai kamuoliniai debesys.

METAR: WMKB 140100Z 07004KT 040V100 8000 FEW017CB 26/23 Q1012 NOSIG

Laikas: 09:21 (01:21 UTC)

Prognozė

Ataskaita buvo paskelbta 2 valandos ir 21 minutes, ne 23:00 UTC
Prognozė galioja nuo 14 metu 00 UTC su 15 metu 00 UTC
Vėjas 3 kt nuo kintamojo kryptimis
Matomumas: 9000 m
Mažai debesys ne aukštis 2000 ft
Tapsmas
nuo 14 metu 04 UTC su 14 metu 06 UTC
Vėjas 10 kt iš Vakarų/Šiaurės Vakarų
Laikinai
nuo 14 metu 07 UTC su 14 metu 11 UTC
Matomumas: 6000 m
Mažai debesys ne aukštis 1700 ft, Liūtiniai kamuoliniai debesys.
perkūnija, lietus

TAF: WMKB 132300Z 1400/1500 VRB03KT 9000 FEW020 BECMG 1404/1406 29010KT TEMPO 1407/1411 6000 -TSRA FEW017CB

Orai ataskaitas ir orų prognozės (METAR, TAF).

turimą stotys yra geltonos ir raudonos taškus žemėlapyje.

Perkelti pele per norėdami pamatyti stoties vardą.

Tada spustelėkite, norėdami matyti oro stebėjimo ir prognozės.

Norėdami pakeisti žemėlapį: spustelėkite ant žalios mygtukų su juodo kryžiaus žemyn,; žalią mygtuką su brūkšneliu, jei norite nutolinti; arba žalių rodyklių gretimoms žemėlapius.


METAR-TAF: